sensor_id;sensor_type;location;lat;lon;timestamp;temperature;humidity
29241;DHT22;16268;49.880;8.648;2022-11-20T00:01:12;3.40;99.90
29241;DHT22;16268;49.880;8.648;2022-11-20T00:03:38;3.40;99.90
29241;DHT22;16268;49.880;8.648;2022-11-20T00:06:09;3.50;99.90
29241;DHT22;16268;49.880;8.648;2022-11-20T00:08:35;3.50;99.90
29241;DHT22;16268;49.880;8.648;2022-11-20T00:11:12;3.50;99.90
29241;DHT22;16268;49.880;8.648;2022-11-20T00:13:38;3.50;99.90
29241;DHT22;16268;49.880;8.648;2022-11-20T00:16:06;3.40;99.90
29241;DHT22;16268;49.880;8.648;2022-11-20T00:18:33;3.50;99.90
29241;DHT22;16268;49.880;8.648;2022-11-20T00:23:29;3.30;99.90
29241;DHT22;16268;49.880;8.648;2022-11-20T00:25:55;3.40;99.90
29241;DHT22;16268;49.880;8.648;2022-11-20T00:28:21;3.40;99.90
29241;DHT22;16268;49.880;8.648;2022-11-20T00:30:46;3.40;99.90
29241;DHT22;16268;49.880;8.648;2022-11-20T00:33:12;3.50;99.90
29241;DHT22;16268;49.880;8.648;2022-11-20T00:35:37;3.60;99.90
29241;DHT22;16268;49.880;8.648;2022-11-20T00:38:03;3.60;99.90
29241;DHT22;16268;49.880;8.648;2022-11-20T00:40:28;3.50;99.90
29241;DHT22;16268;49.880;8.648;2022-11-20T00:42:54;3.40;99.90
29241;DHT22;16268;49.880;8.648;2022-11-20T00:45:19;3.50;99.90
29241;DHT22;16268;49.880;8.648;2022-11-20T00:47:45;3.50;99.90
29241;DHT22;16268;49.880;8.648;2022-11-20T00:50:13;3.40;99.90
29241;DHT22;16268;49.880;8.648;2022-11-20T00:52:39;3.40;99.90
29241;DHT22;16268;49.880;8.648;2022-11-20T00:55:05;3.40;99.90
29241;DHT22;16268;49.880;8.648;2022-11-20T00:57:31;3.40;99.90
29241;DHT22;16268;49.880;8.648;2022-11-20T00:59:57;3.40;99.90
29241;DHT22;16268;49.880;8.648;2022-11-20T01:02:22;3.40;99.90
29241;DHT22;16268;49.880;8.648;2022-11-20T01:04:48;3.50;99.90
29241;DHT22;16268;49.880;8.648;2022-11-20T01:07:13;3.60;99.90
29241;DHT22;16268;49.880;8.648;2022-11-20T01:09:39;3.60;99.90
29241;DHT22;16268;49.880;8.648;2022-11-20T01:12:05;3.50;99.90
29241;DHT22;16268;49.880;8.648;2022-11-20T01:14:31;3.50;99.90
29241;DHT22;16268;49.880;8.648;2022-11-20T01:16:56;3.60;99.90
29241;DHT22;16268;49.880;8.648;2022-11-20T01:19:23;3.60;99.90
29241;DHT22;16268;49.880;8.648;2022-11-20T01:21:50;3.60;99.90
29241;DHT22;16268;49.880;8.648;2022-11-20T01:24:18;3.70;99.90
29241;DHT22;16268;49.880;8.648;2022-11-20T01:26:46;3.70;99.90
29241;DHT22;16268;49.880;8.648;2022-11-20T01:29:14;3.60;99.90
29241;DHT22;16268;49.880;8.648;2022-11-20T01:31:41;3.60;99.90
29241;DHT22;16268;49.880;8.648;2022-11-20T01:34:10;3.60;99.90
29241;DHT22;16268;49.880;8.648;2022-11-20T01:36:37;3.70;99.90
29241;DHT22;16268;49.880;8.648;2022-11-20T01:39:05;3.80;99.90
29241;DHT22;16268;49.880;8.648;2022-11-20T01:41:33;3.90;99.90
29241;DHT22;16268;49.880;8.648;2022-11-20T01:44:21;4.10;99.90
29241;DHT22;16268;49.880;8.648;2022-11-20T01:46:57;4.10;99.90
29241;DHT22;16268;49.880;8.648;2022-11-20T01:50:10;4.10;99.90
29241;DHT22;16268;49.880;8.648;2022-11-20T01:55:13;4.20;99.90
29241;DHT22;16268;49.880;8.648;2022-11-20T01:57:40;4.00;99.90
29241;DHT22;16268;49.880;8.648;2022-11-20T02:00:11;4.00;99.90
29241;DHT22;16268;49.880;8.648;2022-11-20T02:02:39;4.10;99.90
29241;DHT22;16268;49.880;8.648;2022-11-20T02:07:43;4.00;99.90
29241;DHT22;16268;49.880;8.648;2022-11-20T02:10:09;4.00;99.90
29241;DHT22;16268;49.880;8.648;2022-11-20T02:12:35;4.10;99.90
29241;DHT22;16268;49.880;8.648;2022-11-20T02:15:19;4.10;99.90
29241;DHT22;16268;49.880;8.648;2022-11-20T02:17:44;4.20;99.90
29241;DHT22;16268;49.880;8.648;2022-11-20T02:20:10;4.10;99.90
29241;DHT22;16268;49.880;8.648;2022-11-20T02:23:24;4.00;99.90
29241;DHT22;16268;49.880;8.648;2022-11-20T02:25:31;4.00;99.90
29241;DHT22;16268;49.880;8.648;2022-11-20T02:27:58;4.20;99.90
29241;DHT22;16268;49.880;8.648;2022-11-20T02:30:24;4.20;99.90
29241;DHT22;16268;49.880;8.648;2022-11-20T02:32:50;4.20;99.90
29241;DHT22;16268;49.880;8.648;2022-11-20T02:37:45;4.00;99.90
29241;DHT22;16268;49.880;8.648;2022-11-20T02:40:13;4.10;99.90
29241;DHT22;16268;49.880;8.648;2022-11-20T02:42:38;4.30;99.90
29241;DHT22;16268;49.880;8.648;2022-11-20T02:45:05;4.40;99.90
29241;DHT22;16268;49.880;8.648;2022-11-20T02:47:31;4.50;99.90
29241;DHT22;16268;49.880;8.648;2022-11-20T02:49:56;4.50;99.90
29241;DHT22;16268;49.880;8.648;2022-11-20T02:52:22;4.50;99.90
29241;DHT22;16268;49.880;8.648;2022-11-20T02:54:48;4.50;99.90
29241;DHT22;16268;49.880;8.648;2022-11-20T02:57:14;4.40;99.90
29241;DHT22;16268;49.880;8.648;2022-11-20T02:59:39;4.50;99.90
29241;DHT22;16268;49.880;8.648;2022-11-20T03:02:05;4.50;99.90
29241;DHT22;16268;49.880;8.648;2022-11-20T03:04:30;4.40;99.90
29241;DHT22;16268;49.880;8.648;2022-11-20T03:06:56;4.40;99.90
29241;DHT22;16268;49.880;8.648;2022-11-20T03:09:21;4.30;99.90
29241;DHT22;16268;49.880;8.648;2022-11-20T03:11:47;4.40;99.90
29241;DHT22;16268;49.880;8.648;2022-11-20T03:14:12;4.40;99.90
29241;DHT22;16268;49.880;8.648;2022-11-20T03:16:38;4.50;99.90
29241;DHT22;16268;49.880;8.648;2022-11-20T03:19:04;4.50;99.90
29241;DHT22;16268;49.880;8.648;2022-11-20T03:21:30;4.60;99.90
29241;DHT22;16268;49.880;8.648;2022-11-20T03:23:55;4.60;99.90
29241;DHT22;16268;49.880;8.648;2022-11-20T03:26:23;4.60;99.90
29241;DHT22;16268;49.880;8.648;2022-11-20T03:28:57;4.60;99.90
29241;DHT22;16268;49.880;8.648;2022-11-20T03:31:28;4.60;99.90
29241;DHT22;16268;49.880;8.648;2022-11-20T03:33:55;4.60;99.90
29241;DHT22;16268;49.880;8.648;2022-11-20T03:36:21;4.60;99.90
29241;DHT22;16268;49.880;8.648;2022-11-20T03:38:47;4.60;99.90
29241;DHT22;16268;49.880;8.648;2022-11-20T03:41:24;4.70;99.90
29241;DHT22;16268;49.880;8.648;2022-11-20T03:43:56;4.70;99.90
29241;DHT22;16268;49.880;8.648;2022-11-20T03:46:22;4.70;99.90
29241;DHT22;16268;49.880;8.648;2022-11-20T03:48:48;4.60;99.90
29241;DHT22;16268;49.880;8.648;2022-11-20T03:51:16;4.70;99.90
29241;DHT22;16268;49.880;8.648;2022-11-20T03:53:44;4.70;99.90
29241;DHT22;16268;49.880;8.648;2022-11-20T03:56:11;4.70;99.90
29241;DHT22;16268;49.880;8.648;2022-11-20T03:58:38;4.70;99.90
29241;DHT22;16268;49.880;8.648;2022-11-20T04:01:08;4.70;99.90
29241;DHT22;16268;49.880;8.648;2022-11-20T04:03:35;4.70;99.90
29241;DHT22;16268;49.880;8.648;2022-11-20T04:06:04;4.60;99.90
29241;DHT22;16268;49.880;8.648;2022-11-20T04:08:30;4.60;99.90
29241;DHT22;16268;49.880;8.648;2022-11-20T04:10:56;4.60;99.90
29241;DHT22;16268;49.880;8.648;2022-11-20T04:13:21;4.60;99.90
29241;DHT22;16268;49.880;8.648;2022-11-20T04:15:47;4.60;99.90
29241;DHT22;16268;49.880;8.648;2022-11-20T04:18:12;4.60;99.90
29241;DHT22;16268;49.880;8.648;2022-11-20T04:20:38;4.60;99.90
29241;DHT22;16268;49.880;8.648;2022-11-20T04:23:03;4.60;99.90
29241;DHT22;16268;49.880;8.648;2022-11-20T04:25:29;4.60;99.90
29241;DHT22;16268;49.880;8.648;2022-11-20T04:27:54;4.60;99.90
29241;DHT22;16268;49.880;8.648;2022-11-20T04:30:20;4.60;99.90
29241;DHT22;16268;49.880;8.648;2022-11-20T04:32:45;4.60;99.90
29241;DHT22;16268;49.880;8.648;2022-11-20T04:35:11;4.60;99.90
29241;DHT22;16268;49.880;8.648;2022-11-20T04:37:36;4.70;99.90
29241;DHT22;16268;49.880;8.648;2022-11-20T04:40:02;4.70;99.90
29241;DHT22;16268;49.880;8.648;2022-11-20T04:42:28;4.60;99.90
29241;DHT22;16268;49.880;8.648;2022-11-20T04:44:54;4.70;99.90
29241;DHT22;16268;49.880;8.648;2022-11-20T04:47:20;4.70;99.90
29241;DHT22;16268;49.880;8.648;2022-11-20T04:49:46;4.80;99.90
29241;DHT22;16268;49.880;8.648;2022-11-20T04:52:12;4.70;99.90
29241;DHT22;16268;49.880;8.648;2022-11-20T04:54:37;4.80;99.90
29241;DHT22;16268;49.880;8.648;2022-11-20T04:57:03;4.80;99.90
29241;DHT22;16268;49.880;8.648;2022-11-20T04:59:28;4.90;99.90
29241;DHT22;16268;49.880;8.648;2022-11-20T05:01:54;4.90;99.90
29241;DHT22;16268;49.880;8.648;2022-11-20T05:04:19;4.90;99.90
29241;DHT22;16268;49.880;8.648;2022-11-20T05:06:45;4.80;99.90
29241;DHT22;16268;49.880;8.648;2022-11-20T05:09:11;4.70;99.90
29241;DHT22;16268;49.880;8.648;2022-11-20T05:11:37;4.70;99.90
29241;DHT22;16268;49.880;8.648;2022-11-20T05:14:03;4.80;99.90
29241;DHT22;16268;49.880;8.648;2022-11-20T05:16:28;4.80;99.90
29241;DHT22;16268;49.880;8.648;2022-11-20T05:18:54;4.70;99.90
29241;DHT22;16268;49.880;8.648;2022-11-20T05:21:20;4.70;99.90
29241;DHT22;16268;49.880;8.648;2022-11-20T05:23:46;4.70;99.90
29241;DHT22;16268;49.880;8.648;2022-11-20T05:26:17;4.60;99.90
29241;DHT22;16268;49.880;8.648;2022-11-20T05:28:43;4.60;99.90
29241;DHT22;16268;49.880;8.648;2022-11-20T05:31:11;4.70;99.90
29241;DHT22;16268;49.880;8.648;2022-11-20T05:33:40;4.80;99.90
29241;DHT22;16268;49.880;8.648;2022-11-20T05:36:06;4.80;99.90
29241;DHT22;16268;49.880;8.648;2022-11-20T05:38:32;4.90;99.90
29241;DHT22;16268;49.880;8.648;2022-11-20T05:41:05;4.80;99.90
29241;DHT22;16268;49.880;8.648;2022-11-20T05:43:35;4.80;99.90
29241;DHT22;16268;49.880;8.648;2022-11-20T05:46:01;4.80;99.90
29241;DHT22;16268;49.880;8.648;2022-11-20T05:48:27;4.80;99.90
29241;DHT22;16268;49.880;8.648;2022-11-20T05:50:53;4.80;99.90
29241;DHT22;16268;49.880;8.648;2022-11-20T05:53:18;4.80;99.90
29241;DHT22;16268;49.880;8.648;2022-11-20T05:55:44;4.70;99.90
29241;DHT22;16268;49.880;8.648;2022-11-20T05:58:09;4.70;99.90
29241;DHT22;16268;49.880;8.648;2022-11-20T06:00:35;4.70;99.90
29241;DHT22;16268;49.880;8.648;2022-11-20T06:03:01;4.70;99.90
29241;DHT22;16268;49.880;8.648;2022-11-20T06:05:27;4.60;99.90
29241;DHT22;16268;49.880;8.648;2022-11-20T06:07:52;4.50;99.90
29241;DHT22;16268;49.880;8.648;2022-11-20T06:10:18;4.50;99.90
29241;DHT22;16268;49.880;8.648;2022-11-20T06:12:43;4.50;99.90
29241;DHT22;16268;49.880;8.648;2022-11-20T06:15:09;4.60;99.90
29241;DHT22;16268;49.880;8.648;2022-11-20T06:17:35;4.60;99.90
29241;DHT22;16268;49.880;8.648;2022-11-20T06:20:00;4.70;99.90
29241;DHT22;16268;49.880;8.648;2022-11-20T06:22:26;4.60;99.90
29241;DHT22;16268;49.880;8.648;2022-11-20T06:24:51;4.60;99.90
29241;DHT22;16268;49.880;8.648;2022-11-20T06:27:17;4.70;99.90
29241;DHT22;16268;49.880;8.648;2022-11-20T06:29:43;4.70;99.90
29241;DHT22;16268;49.880;8.648;2022-11-20T06:32:08;4.70;99.90
29241;DHT22;16268;49.880;8.648;2022-11-20T06:34:34;4.60;99.90
29241;DHT22;16268;49.880;8.648;2022-11-20T06:36:59;4.60;99.90
29241;DHT22;16268;49.880;8.648;2022-11-20T06:39:25;4.60;99.90
29241;DHT22;16268;49.880;8.648;2022-11-20T06:41:50;4.70;99.90
29241;DHT22;16268;49.880;8.648;2022-11-20T06:44:16;4.70;99.90
29241;DHT22;16268;49.880;8.648;2022-11-20T06:46:41;4.70;99.90
29241;DHT22;16268;49.880;8.648;2022-11-20T06:49:07;4.70;99.90
29241;DHT22;16268;49.880;8.648;2022-11-20T06:51:33;4.70;99.90
29241;DHT22;16268;49.880;8.648;2022-11-20T06:53:58;4.80;99.90
29241;DHT22;16268;49.880;8.648;2022-11-20T06:56:26;4.80;99.90
29241;DHT22;16268;49.880;8.648;2022-11-20T06:58:51;4.80;99.90
29241;DHT22;16268;49.880;8.648;2022-11-20T07:01:17;4.80;99.90
29241;DHT22;16268;49.880;8.648;2022-11-20T07:03:43;4.80;99.90
29241;DHT22;16268;49.880;8.648;2022-11-20T07:06:09;4.80;99.90
29241;DHT22;16268;49.880;8.648;2022-11-20T07:08:35;4.80;99.90
29241;DHT22;16268;49.880;8.648;2022-11-20T07:11:05;4.70;99.90
29241;DHT22;16268;49.880;8.648;2022-11-20T07:13:31;4.70;99.90
29241;DHT22;16268;49.880;8.648;2022-11-20T07:16:01;4.80;99.90
29241;DHT22;16268;49.880;8.648;2022-11-20T07:18:27;4.80;99.90
29241;DHT22;16268;49.880;8.648;2022-11-20T07:20:52;4.70;99.90
29241;DHT22;16268;49.880;8.648;2022-11-20T07:23:18;4.60;99.90
29241;DHT22;16268;49.880;8.648;2022-11-20T07:25:44;4.60;99.90
29241;DHT22;16268;49.880;8.648;2022-11-20T07:28:09;4.40;99.90
29241;DHT22;16268;49.880;8.648;2022-11-20T07:30:36;4.40;99.90
29241;DHT22;16268;49.880;8.648;2022-11-20T07:33:01;4.40;99.90
29241;DHT22;16268;49.880;8.648;2022-11-20T07:35:27;4.40;99.90
29241;DHT22;16268;49.880;8.648;2022-11-20T07:37:52;4.40;99.90
29241;DHT22;16268;49.880;8.648;2022-11-20T07:40:18;4.40;99.90
29241;DHT22;16268;49.880;8.648;2022-11-20T07:42:52;4.30;99.90
29241;DHT22;16268;49.880;8.648;2022-11-20T07:45:19;4.40;99.90
29241;DHT22;16268;49.880;8.648;2022-11-20T07:47:45;4.50;99.90
29241;DHT22;16268;49.880;8.648;2022-11-20T07:50:11;4.60;99.90
29241;DHT22;16268;49.880;8.648;2022-11-20T07:52:37;4.60;99.90
29241;DHT22;16268;49.880;8.648;2022-11-20T07:55:03;4.60;99.90
29241;DHT22;16268;49.880;8.648;2022-11-20T07:57:28;4.50;99.90
29241;DHT22;16268;49.880;8.648;2022-11-20T07:59:54;4.50;99.90
29241;DHT22;16268;49.880;8.648;2022-11-20T08:02:20;4.50;99.90
29241;DHT22;16268;49.880;8.648;2022-11-20T08:04:45;4.70;99.90
29241;DHT22;16268;49.880;8.648;2022-11-20T08:07:10;4.70;99.90
29241;DHT22;16268;49.880;8.648;2022-11-20T08:09:36;4.80;99.90
29241;DHT22;16268;49.880;8.648;2022-11-20T08:12:02;4.80;99.90
29241;DHT22;16268;49.880;8.648;2022-11-20T08:14:46;4.80;99.90
29241;DHT22;16268;49.880;8.648;2022-11-20T08:17:11;4.70;99.90
29241;DHT22;16268;49.880;8.648;2022-11-20T08:19:37;4.70;99.90
29241;DHT22;16268;49.880;8.648;2022-11-20T08:22:03;4.70;99.90
29241;DHT22;16268;49.880;8.648;2022-11-20T08:24:28;4.90;99.90
29241;DHT22;16268;49.880;8.648;2022-11-20T08:26:57;5.00;99.90
29241;DHT22;16268;49.880;8.648;2022-11-20T08:29:23;5.00;99.90
29241;DHT22;16268;49.880;8.648;2022-11-20T08:31:48;5.10;99.90
29241;DHT22;16268;49.880;8.648;2022-11-20T08:34:14;5.20;99.90
29241;DHT22;16268;49.880;8.648;2022-11-20T08:36:40;5.40;99.90
29241;DHT22;16268;49.880;8.648;2022-11-20T08:39:05;5.40;99.90
29241;DHT22;16268;49.880;8.648;2022-11-20T08:41:31;5.40;99.90
29241;DHT22;16268;49.880;8.648;2022-11-20T08:44:06;5.50;99.90
29241;DHT22;16268;49.880;8.648;2022-11-20T08:46:37;5.70;99.90
29241;DHT22;16268;49.880;8.648;2022-11-20T08:49:05;5.80;99.90
29241;DHT22;16268;49.880;8.648;2022-11-20T08:51:31;5.80;99.90
29241;DHT22;16268;49.880;8.648;2022-11-20T08:53:57;5.90;99.90
29241;DHT22;16268;49.880;8.648;2022-11-20T08:56:23;6.10;99.90
29241;DHT22;16268;49.880;8.648;2022-11-20T08:58:50;6.20;99.90
29241;DHT22;16268;49.880;8.648;2022-11-20T09:01:16;6.30;99.90
29241;DHT22;16268;49.880;8.648;2022-11-20T09:03:42;6.30;99.90
29241;DHT22;16268;49.880;8.648;2022-11-20T09:06:07;6.60;99.90
29241;DHT22;16268;49.880;8.648;2022-11-20T09:08:34;6.80;99.90
29241;DHT22;16268;49.880;8.648;2022-11-20T09:11:01;7.10;99.90
29241;DHT22;16268;49.880;8.648;2022-11-20T09:13:31;7.30;99.90
29241;DHT22;16268;49.880;8.648;2022-11-20T09:15:59;7.40;99.90
29241;DHT22;16268;49.880;8.648;2022-11-20T09:18:26;7.30;99.90
29241;DHT22;16268;49.880;8.648;2022-11-20T09:20:55;7.10;99.90
29241;DHT22;16268;49.880;8.648;2022-11-20T09:23:21;6.80;99.90
29241;DHT22;16268;49.880;8.648;2022-11-20T09:25:46;6.70;99.90
29241;DHT22;16268;49.880;8.648;2022-11-20T09:28:12;6.70;99.90
29241;DHT22;16268;49.880;8.648;2022-11-20T09:30:38;6.50;99.90
29241;DHT22;16268;49.880;8.648;2022-11-20T09:33:05;6.60;99.90
29241;DHT22;16268;49.880;8.648;2022-11-20T09:35:31;6.50;99.90
29241;DHT22;16268;49.880;8.648;2022-11-20T09:37:57;6.40;99.90
29241;DHT22;16268;49.880;8.648;2022-11-20T09:40:25;6.50;99.90
29241;DHT22;16268;49.880;8.648;2022-11-20T09:42:59;6.60;99.90
29241;DHT22;16268;49.880;8.648;2022-11-20T09:45:37;6.70;99.90
29241;DHT22;16268;49.880;8.648;2022-11-20T09:56:20;6.60;99.90
29241;DHT22;16268;49.880;8.648;2022-11-20T09:58:51;6.60;99.90
29241;DHT22;16268;49.880;8.648;2022-11-20T10:01:19;6.50;99.90
29241;DHT22;16268;49.880;8.648;2022-11-20T10:06:18;6.40;99.90
29241;DHT22;16268;49.880;8.648;2022-11-20T10:14:59;6.30;99.90
29241;DHT22;16268;49.880;8.648;2022-11-20T10:17:19;6.30;99.90
29241;DHT22;16268;49.880;8.648;2022-11-20T10:25:45;6.40;99.90
29241;DHT22;16268;49.880;8.648;2022-11-20T10:30:46;6.70;99.90
29241;DHT22;16268;49.880;8.648;2022-11-20T10:33:17;6.70;99.90
29241;DHT22;16268;49.880;8.648;2022-11-20T10:38:24;6.70;99.90
29241;DHT22;16268;49.880;8.648;2022-11-20T10:41:02;6.70;99.90
29241;DHT22;16268;49.880;8.648;2022-11-20T10:43:48;6.60;99.90
29241;DHT22;16268;49.880;8.648;2022-11-20T10:46:18;6.60;99.90
29241;DHT22;16268;49.880;8.648;2022-11-20T10:48:45;6.60;99.90
29241;DHT22;16268;49.880;8.648;2022-11-20T10:54:10;6.50;99.90
29241;DHT22;16268;49.880;8.648;2022-11-20T10:56:51;6.40;99.90
29241;DHT22;16268;49.880;8.648;2022-11-20T11:01:45;6.30;99.90
29241;DHT22;16268;49.880;8.648;2022-11-20T11:04:29;6.30;99.90
29241;DHT22;16268;49.880;8.648;2022-11-20T11:07:12;6.30;99.90
29241;DHT22;16268;49.880;8.648;2022-11-20T11:09:43;6.30;99.90
29241;DHT22;16268;49.880;8.648;2022-11-20T11:12:09;6.30;99.90
29241;DHT22;16268;49.880;8.648;2022-11-20T11:14:49;6.30;99.90
29241;DHT22;16268;49.880;8.648;2022-11-20T11:22:33;6.20;99.90
29241;DHT22;16268;49.880;8.648;2022-11-20T11:24:59;6.30;99.90
29241;DHT22;16268;49.880;8.648;2022-11-20T11:27:25;6.40;99.90
29241;DHT22;16268;49.880;8.648;2022-11-20T11:30:02;6.40;99.90
29241;DHT22;16268;49.880;8.648;2022-11-20T11:32:31;6.50;99.90
29241;DHT22;16268;49.880;8.648;2022-11-20T11:35:05;6.60;99.90
29241;DHT22;16268;49.880;8.648;2022-11-20T11:37:36;6.60;99.90
29241;DHT22;16268;49.880;8.648;2022-11-20T11:40:04;6.90;99.90
29241;DHT22;16268;49.880;8.648;2022-11-20T11:42:31;7.00;99.90
29241;DHT22;16268;49.880;8.648;2022-11-20T11:44:59;7.20;99.90
29241;DHT22;16268;49.880;8.648;2022-11-20T11:47:33;7.00;99.90
29241;DHT22;16268;49.880;8.648;2022-11-20T12:00:22;6.80;99.90
29241;DHT22;16268;49.880;8.648;2022-11-20T12:07:54;6.90;99.90
29241;DHT22;16268;49.880;8.648;2022-11-20T12:13:30;7.00;99.90
29241;DHT22;16268;49.880;8.648;2022-11-20T12:16:02;7.10;99.90
29241;DHT22;16268;49.880;8.648;2022-11-20T12:18:31;7.20;99.90
29241;DHT22;16268;49.880;8.648;2022-11-20T12:35:05;7.00;99.90
29241;DHT22;16268;49.880;8.648;2022-11-20T12:40:22;6.90;99.90
29241;DHT22;16268;49.880;8.648;2022-11-20T12:42:55;6.90;99.90
29241;DHT22;16268;49.880;8.648;2022-11-20T12:46:06;7.00;99.90
29241;DHT22;16268;49.880;8.648;2022-11-20T12:51:21;7.20;99.90
29241;DHT22;16268;49.880;8.648;2022-11-20T12:56:50;7.20;99.90
29241;DHT22;16268;49.880;8.648;2022-11-20T13:02:14;7.20;99.90
29241;DHT22;16268;49.880;8.648;2022-11-20T13:05:01;7.20;99.90
29241;DHT22;16268;49.880;8.648;2022-11-20T13:07:28;7.20;99.90
29241;DHT22;16268;49.880;8.648;2022-11-20T13:09:59;7.10;99.90
29241;DHT22;16268;49.880;8.648;2022-11-20T13:12:36;7.00;99.90
29241;DHT22;16268;49.880;8.648;2022-11-20T13:18:02;6.70;99.90
29241;DHT22;16268;49.880;8.648;2022-11-20T13:20:32;6.70;99.90
29241;DHT22;16268;49.880;8.648;2022-11-20T13:22:58;6.80;99.90
29241;DHT22;16268;49.880;8.648;2022-11-20T13:28:37;7.00;99.90
29241;DHT22;16268;49.880;8.648;2022-11-20T13:30:51;7.00;99.90
29241;DHT22;16268;49.880;8.648;2022-11-20T13:35:59;7.10;99.90
29241;DHT22;16268;49.880;8.648;2022-11-20T13:38:24;7.20;99.90
29241;DHT22;16268;49.880;8.648;2022-11-20T13:46:08;7.40;99.90
29241;DHT22;16268;49.880;8.648;2022-11-20T13:48:42;7.40;99.90
29241;DHT22;16268;49.880;8.648;2022-11-20T13:56:59;7.40;99.90
29241;DHT22;16268;49.880;8.648;2022-11-20T14:02:13;7.40;99.90
29241;DHT22;16268;49.880;8.648;2022-11-20T14:04:44;7.30;99.90
29241;DHT22;16268;49.880;8.648;2022-11-20T14:07:10;7.30;99.90
29241;DHT22;16268;49.880;8.648;2022-11-20T14:09:36;7.40;99.90
29241;DHT22;16268;49.880;8.648;2022-11-20T14:12:03;7.50;99.90
29241;DHT22;16268;49.880;8.648;2022-11-20T14:14:30;7.60;99.90
29241;DHT22;16268;49.880;8.648;2022-11-20T14:17:06;7.40;99.90
29241;DHT22;16268;49.880;8.648;2022-11-20T14:19:32;7.50;99.90
29241;DHT22;16268;49.880;8.648;2022-11-20T14:22:15;7.40;99.90
29241;DHT22;16268;49.880;8.648;2022-11-20T14:24:43;7.30;99.90
29241;DHT22;16268;49.880;8.648;2022-11-20T14:27:19;7.30;99.90
29241;DHT22;16268;49.880;8.648;2022-11-20T14:29:47;7.40;99.90
29241;DHT22;16268;49.880;8.648;2022-11-20T14:32:16;7.40;99.90
29241;DHT22;16268;49.880;8.648;2022-11-20T14:34:44;7.40;99.90
29241;DHT22;16268;49.880;8.648;2022-11-20T14:37:12;7.50;99.90
29241;DHT22;16268;49.880;8.648;2022-11-20T14:39:47;7.60;99.90
29241;DHT22;16268;49.880;8.648;2022-11-20T14:42:21;7.60;99.90
29241;DHT22;16268;49.880;8.648;2022-11-20T14:44:47;7.60;99.90
29241;DHT22;16268;49.880;8.648;2022-11-20T14:47:17;7.60;99.90
29241;DHT22;16268;49.880;8.648;2022-11-20T14:49:44;7.60;99.90
29241;DHT22;16268;49.880;8.648;2022-11-20T14:52:19;7.60;99.90
29241;DHT22;16268;49.880;8.648;2022-11-20T14:54:47;7.60;99.90
29241;DHT22;16268;49.880;8.648;2022-11-20T14:57:25;7.50;99.90
29241;DHT22;16268;49.880;8.648;2022-11-20T15:00:02;7.50;99.90
29241;DHT22;16268;49.880;8.648;2022-11-20T15:02:29;7.40;99.90
29241;DHT22;16268;49.880;8.648;2022-11-20T15:05:00;7.40;99.90
29241;DHT22;16268;49.880;8.648;2022-11-20T15:07:34;7.40;99.90
29241;DHT22;16268;49.880;8.648;2022-11-20T15:10:08;7.40;99.90
29241;DHT22;16268;49.880;8.648;2022-11-20T15:12:38;7.30;99.90
29241;DHT22;16268;49.880;8.648;2022-11-20T15:15:04;7.30;99.90
29241;DHT22;16268;49.880;8.648;2022-11-20T15:17:31;7.30;99.90
29241;DHT22;16268;49.880;8.648;2022-11-20T15:19:57;7.30;99.90
29241;DHT22;16268;49.880;8.648;2022-11-20T15:22:24;7.30;99.90
29241;DHT22;16268;49.880;8.648;2022-11-20T15:24:49;7.30;99.90
29241;DHT22;16268;49.880;8.648;2022-11-20T15:27:15;7.30;99.90
29241;DHT22;16268;49.880;8.648;2022-11-20T15:29:41;7.30;99.90
29241;DHT22;16268;49.880;8.648;2022-11-20T15:32:08;7.40;99.90
29241;DHT22;16268;49.880;8.648;2022-11-20T15:34:34;7.40;99.90
29241;DHT22;16268;49.880;8.648;2022-11-20T15:36:59;7.40;99.90
29241;DHT22;16268;49.880;8.648;2022-11-20T15:39:25;7.40;99.90
29241;DHT22;16268;49.880;8.648;2022-11-20T15:41:50;7.40;99.90
29241;DHT22;16268;49.880;8.648;2022-11-20T15:44:16;7.40;99.90
29241;DHT22;16268;49.880;8.648;2022-11-20T15:46:42;7.50;99.90
29241;DHT22;16268;49.880;8.648;2022-11-20T15:49:14;7.50;99.90
29241;DHT22;16268;49.880;8.648;2022-11-20T15:51:43;7.50;99.90
29241;DHT22;16268;49.880;8.648;2022-11-20T15:54:13;7.50;99.90
29241;DHT22;16268;49.880;8.648;2022-11-20T15:56:39;7.60;99.90
29241;DHT22;16268;49.880;8.648;2022-11-20T15:59:05;7.50;99.90
29241;DHT22;16268;49.880;8.648;2022-11-20T16:01:30;7.50;99.90
29241;DHT22;16268;49.880;8.648;2022-11-20T16:03:57;7.60;99.90
29241;DHT22;16268;49.880;8.648;2022-11-20T16:06:24;7.60;99.90
29241;DHT22;16268;49.880;8.648;2022-11-20T16:08:49;7.50;99.90
29241;DHT22;16268;49.880;8.648;2022-11-20T16:11:16;7.60;99.90
29241;DHT22;16268;49.880;8.648;2022-11-20T16:13:43;7.60;99.90
29241;DHT22;16268;49.880;8.648;2022-11-20T16:16:29;7.50;99.90
29241;DHT22;16268;49.880;8.648;2022-11-20T16:18:56;7.50;99.90
29241;DHT22;16268;49.880;8.648;2022-11-20T16:21:22;7.50;99.90
29241;DHT22;16268;49.880;8.648;2022-11-20T16:24:00;7.60;99.90
29241;DHT22;16268;49.880;8.648;2022-11-20T16:26:27;7.50;99.90
29241;DHT22;16268;49.880;8.648;2022-11-20T16:28:54;7.50;99.90
29241;DHT22;16268;49.880;8.648;2022-11-20T16:31:19;7.50;99.90
29241;DHT22;16268;49.880;8.648;2022-11-20T16:33:50;7.50;99.90
29241;DHT22;16268;49.880;8.648;2022-11-20T16:36:17;7.50;99.90
29241;DHT22;16268;49.880;8.648;2022-11-20T16:38:43;7.50;99.90
29241;DHT22;16268;49.880;8.648;2022-11-20T16:41:09;7.50;99.90
29241;DHT22;16268;49.880;8.648;2022-11-20T16:43:44;7.50;99.90
29241;DHT22;16268;49.880;8.648;2022-11-20T16:46:11;7.50;99.90
29241;DHT22;16268;49.880;8.648;2022-11-20T16:48:36;7.50;99.90
29241;DHT22;16268;49.880;8.648;2022-11-20T16:51:02;7.50;99.90
29241;DHT22;16268;49.880;8.648;2022-11-20T16:53:27;7.50;99.90
29241;DHT22;16268;49.880;8.648;2022-11-20T16:55:53;7.60;99.90
29241;DHT22;16268;49.880;8.648;2022-11-20T16:58:19;7.60;99.90
29241;DHT22;16268;49.880;8.648;2022-11-20T17:00:44;7.60;99.90
29241;DHT22;16268;49.880;8.648;2022-11-20T17:03:10;7.60;99.90
29241;DHT22;16268;49.880;8.648;2022-11-20T17:05:36;7.60;99.90
29241;DHT22;16268;49.880;8.648;2022-11-20T17:08:02;7.60;99.90
29241;DHT22;16268;49.880;8.648;2022-11-20T17:10:28;7.60;99.90
29241;DHT22;16268;49.880;8.648;2022-11-20T17:12:53;7.60;99.90
29241;DHT22;16268;49.880;8.648;2022-11-20T17:15:19;7.60;99.90
29241;DHT22;16268;49.880;8.648;2022-11-20T17:17:44;7.60;99.90
29241;DHT22;16268;49.880;8.648;2022-11-20T17:20:10;7.60;99.90
29241;DHT22;16268;49.880;8.648;2022-11-20T17:22:38;7.60;99.90
29241;DHT22;16268;49.880;8.648;2022-11-20T17:25:04;7.60;99.90
29241;DHT22;16268;49.880;8.648;2022-11-20T17:27:30;7.60;99.90
29241;DHT22;16268;49.880;8.648;2022-11-20T17:29:55;7.50;99.90
29241;DHT22;16268;49.880;8.648;2022-11-20T17:32:23;7.50;99.90
29241;DHT22;16268;49.880;8.648;2022-11-20T17:34:49;7.50;99.90
29241;DHT22;16268;49.880;8.648;2022-11-20T17:37:14;7.50;99.90
29241;DHT22;16268;49.880;8.648;2022-11-20T17:39:40;7.50;99.90
29241;DHT22;16268;49.880;8.648;2022-11-20T17:42:05;7.50;99.90
29241;DHT22;16268;49.880;8.648;2022-11-20T17:44:49;7.50;99.90